Time;durP1;ratioP1;P1;durP2;ratioP2;P2;SDS_P1;SDS_P2;PMS_P1;PMS_P2;Temp;Humidity;BMP_temperature;BMP_pressure;BME280_temperature;BME280_humidity;BME280_pressure;Samples;Min_cycle;Max_cycle;Signal;HPM_P1;HPM_P2
2023/08/13 00:01:32;;;;;;;0.40;0.30;;;;;;;21.03;66.23;95640.41;5112646;28;20432;-57
2023/08/13 00:04:00;;;;;;;0.60;0.40;;;;;;;20.83;67.40;95635.78;5114294;28;20444;-56
2023/08/13 00:06:28;;;;;;;0.40;0.30;;;;;;;20.99;70.49;95638.69;5113974;28;20436;-56
2023/08/13 00:08:57;;;;;;;0.50;0.30;;;;;;;20.77;67.99;95637.09;5113751;28;20964;-58
2023/08/13 00:11:26;;;;;;;1.33;0.50;;;;;;;20.84;69.12;95634.66;5113669;28;20439;-56
2023/08/13 00:13:55;;;;;;;0.40;0.30;;;;;;;20.79;67.83;95637.56;5114341;28;20444;-56
2023/08/13 00:16:23;;;;;;;0.60;0.30;;;;;;;21.09;71.21;95631.06;5087988;28;20464;-56
2023/08/13 00:18:51;;;;;;;0.50;0.30;;;;;;;21.08;69.00;95625.97;5113275;28;20530;-56
2023/08/13 00:21:20;;;;;;;0.40;0.30;;;;;;;21.08;71.02;95631.34;5114142;28;20439;-56
2023/08/13 00:23:50;;;;;;;0.40;0.30;;;;;;;21.01;70.88;95637.25;5113891;28;20475;-55
2023/08/13 00:26:18;;;;;;;0.70;0.50;;;;;;;20.73;69.23;95631.56;5112712;28;21146;-56
2023/08/13 00:28:49;;;;;;;0.50;0.40;;;;;;;19.86;70.49;95550.69;5113127;28;20440;-56
2023/08/13 00:31:17;;;;;;;0.73;0.53;;;;;;;20.22;71.04;95637.94;5114109;28;21018;-56
2023/08/13 00:33:45;;;;;;;0.70;0.70;;;;;;;20.22;71.75;95639.81;5113364;28;20509;-56
2023/08/13 00:36:15;;;;;;;0.50;0.30;;;;;;;20.65;72.43;95647.75;5113692;27;20448;-56
2023/08/13 00:38:43;;;;;;;0.60;0.40;;;;;;;20.65;73.45;95636.97;5113209;28;20440;-56
2023/08/13 00:41:11;;;;;;;0.70;0.70;;;;;;;20.33;71.13;95635.72;5113676;28;20510;-57
2023/08/13 00:43:40;;;;;;;0.70;0.40;;;;;;;20.41;71.59;95639.47;5113466;28;20981;-56
2023/08/13 00:46:11;;;;;;;0.60;0.60;;;;;;;20.13;72.81;95639.88;5113666;28;20870;-56
2023/08/13 00:48:40;;;;;;;0.53;0.40;;;;;;;20.32;75.86;95634.13;5112583;28;21000;-56
2023/08/13 00:51:11;;;;;;;0.40;0.33;;;;;;;20.59;76.61;95643.69;5113431;28;20559;-57
2023/08/13 00:53:46;;;;;;;0.60;0.40;;;;;;;20.51;73.79;95647.19;5112885;28;20468;-56
2023/08/13 00:56:15;;;;;;;0.63;0.40;;;;;;;20.56;75.31;95637.03;5112339;28;20448;-57
2023/08/13 00:58:45;;;;;;;0.50;0.30;;;;;;;20.79;77.06;95634.84;5085880;28;20436;-56
2023/08/13 01:01:15;;;;;;;0.50;0.40;;;;;;;20.79;74.98;95634.84;5113376;28;20478;-56
2023/08/13 01:03:43;;;;;;;0.50;0.30;;;;;;;20.92;76.11;95628.44;5113348;28;20492;-56
2023/08/13 01:06:17;;;;;;;0.50;0.30;;;;;;;21.04;73.83;95636.59;5113241;28;20510;-56
2023/08/13 01:08:59;;;;;;;0.73;0.30;;;;;;;20.85;72.27;95628.16;5112662;28;20521;-56
2023/08/13 01:11:37;;;;;;;1.03;0.40;;;;;;;20.36;74.61;95583.13;5112058;28;21014;-56
2023/08/13 01:14:13;;;;;;;0.40;0.30;;;;;;;21.05;79.11;95634.69;5112965;28;20510;-55
2023/08/13 01:16:44;;;;;;;0.50;0.50;;;;;;;21.12;74.68;95632.28;5088439;28;20464;-56
2023/08/13 01:19:14;;;;;;;0.57;0.50;;;;;;;21.02;72.47;95629.97;5112314;28;20446;-56
2023/08/13 01:21:42;;;;;;;0.40;0.30;;;;;;;21.00;73.68;95610.63;5112363;28;20443;-56
2023/08/13 01:24:12;;;;;;;1.13;0.40;;;;;;;20.92;73.71;95625.75;5094388;28;20486;-56
2023/08/13 01:26:50;;;;;;;0.80;0.50;;;;;;;20.93;74.33;95630.00;5093430;28;20865;-56
2023/08/13 01:29:30;;;;;;;0.60;0.30;;;;;;;21.21;73.93;95633.81;5112119;28;20432;-56
2023/08/13 01:32:03;;;;;;;0.40;0.30;;;;;;;21.39;72.94;95629.88;5097274;28;20953;-55
2023/08/13 01:34:33;;;;;;;1.37;0.97;;;;;;;21.40;73.79;95626.03;5112514;28;20994;-56
2023/08/13 01:37:03;;;;;;;0.50;0.30;;;;;;;21.41;72.86;95624.13;5095763;28;20461;-56
2023/08/13 01:39:33;;;;;;;3.23;0.30;;;;;;;21.17;71.68;95632.91;5099790;28;20972;-56
2023/08/13 01:42:01;;;;;;;0.40;0.30;;;;;;;21.41;73.93;95624.13;5112122;28;20439;-56
2023/08/13 01:44:30;;;;;;;0.60;0.50;;;;;;;20.96;71.11;95610.50;5112685;28;20447;-56
2023/08/13 01:46:58;;;;;;;1.80;0.40;;;;;;;21.27;73.82;95619.03;5111918;28;20462;-56
2023/08/13 01:49:27;;;;;;;0.83;0.60;;;;;;;21.45;72.47;95619.69;5111835;28;20467;-56
2023/08/13 01:51:55;;;;;;;0.40;0.30;;;;;;;21.40;73.13;95607.16;5112268;28;20552;-56
2023/08/13 01:54:23;;;;;;;0.60;0.50;;;;;;;21.43;73.15;95627.28;5111989;28;20479;-57
2023/08/13 01:56:53;;;;;;;0.40;0.30;;;;;;;21.46;73.06;95627.44;5112199;28;20501;-56
2023/08/13 01:59:21;;;;;;;1.57;0.30;;;;;;;21.59;74.09;95627.47;5112390;28;20479;-57
2023/08/13 02:01:50;;;;;;;0.60;0.57;;;;;;;21.45;69.95;95625.06;5107985;28;20560;-56
2023/08/13 02:04:18;;;;;;;0.40;0.20;;;;;;;21.48;73.30;95627.09;5102729;28;20795;-56
2023/08/13 02:06:46;;;;;;;0.80;0.50;;;;;;;21.36;71.81;95618.94;5111439;28;20442;-57
2023/08/13 02:09:15;;;;;;;0.90;0.40;;;;;;;21.43;74.35;95624.59;5112400;28;20439;-56
2023/08/13 02:11:43;;;;;;;0.43;0.30;;;;;;;21.56;74.52;95630.81;5111561;28;20479;-57
2023/08/13 02:14:13;;;;;;;0.50;0.37;;;;;;;21.33;73.58;95633.88;5112239;28;20971;-57
2023/08/13 02:16:41;;;;;;;0.53;0.40;;;;;;;21.21;72.37;95620.31;5111981;28;20501;-56
2023/08/13 02:19:09;;;;;;;0.50;0.40;;;;;;;20.99;73.76;95564.03;5111327;28;20459;-56
2023/08/13 02:21:38;;;;;;;1.60;0.50;;;;;;;21.06;70.57;95634.41;5112026;28;20443;-57
2023/08/13 02:24:06;;;;;;;0.40;0.30;;;;;;;21.22;72.61;95631.91;5111620;28;20443;-56
2023/08/13 02:26:35;;;;;;;0.40;0.20;;;;;;;21.39;74.84;95637.97;5111569;28;20492;-56
2023/08/13 02:29:03;;;;;;;0.50;0.50;;;;;;;21.41;75.00;95629.53;5111380;28;20436;-56
2023/08/13 02:31:33;;;;;;;1.77;0.30;;;;;;;21.32;74.38;95648.50;5111064;28;20439;-56
2023/08/13 02:34:01;;;;;;;0.60;0.40;;;;;;;21.10;74.24;95643.38;5099087;28;20487;-56
2023/08/13 02:36:30;;;;;;;0.73;0.73;;;;;;;20.89;75.74;95637.16;5107650;28;20443;-56
2023/08/13 02:38:58;;;;;;;0.47;0.40;;;;;;;21.12;77.73;95643.09;5111593;28;20814;-56
2023/08/13 02:41:26;;;;;;;0.50;0.30;;;;;;;21.20;76.19;95650.31;5111298;28;20492;-56
2023/08/13 02:43:56;;;;;;;0.50;0.40;;;;;;;21.04;73.29;95649.28;5095902;28;20452;-56
2023/08/13 02:46:26;;;;;;;0.90;0.90;;;;;;;20.36;73.78;95647.72;5111293;28;20431;-57
2023/08/13 02:48:56;;;;;;;0.50;0.37;;;;;;;20.26;75.76;95644.25;5110891;28;20574;-57
2023/08/13 02:51:25;;;;;;;0.50;0.30;;;;;;;20.72;77.38;95643.44;5108028;28;20457;-56
2023/08/13 02:53:54;;;;;;;0.50;0.30;;;;;;;21.03;73.90;95648.47;5098489;28;20556;-57
2023/08/13 02:56:22;;;;;;;0.40;0.20;;;;;;;21.06;74.64;95655.16;5111196;28;20475;-57
2023/08/13 02:58:50;;;;;;;0.40;0.30;;;;;;;21.10;73.66;95658.78;5111402;28;20576;-57
2023/08/13 03:01:18;;;;;;;0.40;0.30;;;;;;;20.76;75.07;95662.44;5111028;28;20463;-57
2023/08/13 03:03:49;;;;;;;0.40;0.30;;;;;;;20.47;77.09;95663.19;5111332;28;20933;-57
2023/08/13 03:06:24;;;;;;;0.50;0.40;;;;;;;20.40;76.22;95654.84;5111777;28;20820;-57
2023/08/13 03:08:53;;;;;;;1.47;1.37;;;;;;;20.14;78.09;95657.56;5111432;28;20436;-58
2023/08/13 03:11:22;;;;;;;0.50;0.30;;;;;;;19.94;80.78;95609.03;5111189;28;20436;-57
2023/08/13 03:13:50;;;;;;;0.50;0.30;;;;;;;20.31;81.64;95651.41;5110909;28;20543;-58
2023/08/13 03:16:20;;;;;;;0.50;0.40;;;;;;;20.63;78.81;95663.44;5110995;28;20440;-58
2023/08/13 03:18:48;;;;;;;0.50;0.33;;;;;;;20.48;79.26;95655.91;5113156;28;20486;-57
2023/08/13 03:21:17;;;;;;;0.40;0.30;;;;;;;20.64;82.11;95670.44;5114615;28;20465;-58
2023/08/13 03:23:47;;;;;;;0.70;0.63;;;;;;;20.28;80.98;95665.50;5114854;28;20471;-57
2023/08/13 03:26:15;;;;;;;0.43;0.30;;;;;;;20.23;81.52;95658.38;5105071;28;20459;-57
2023/08/13 03:28:43;;;;;;;0.63;0.60;;;;;;;20.08;80.50;95658.09;5110092;28;20442;-58
2023/08/13 03:31:12;;;;;;;0.50;0.30;;;;;;;19.96;80.88;95658.72;5114924;28;20443;-57
2023/08/13 03:33:41;;;;;;;0.60;0.60;;;;;;;20.13;84.12;95674.06;5114506;28;20510;-58
2023/08/13 03:36:09;;;;;;;0.50;0.40;;;;;;;20.26;83.19;95665.78;5114638;28;20440;-58
2023/08/13 03:38:37;;;;;;;1.60;0.40;;;;;;;20.35;83.02;95656.91;5114837;28;20492;-59
2023/08/13 03:41:07;;;;;;;0.40;0.30;;;;;;;20.56;84.26;95663.16;5111512;28;20439;-57
2023/08/13 03:43:35;;;;;;;0.40;0.30;;;;;;;20.67;78.56;95659.78;5092075;28;20496;-59
2023/08/13 03:46:03;;;;;;;0.50;0.30;;;;;;;20.67;82.44;95669.78;5099299;28;20481;-58
2023/08/13 03:48:32;;;;;;;0.40;0.30;;;;;;;20.63;82.88;95661.56;5113682;28;20539;-58
2023/08/13 03:51:02;;;;;;;0.40;0.30;;;;;;;20.65;81.16;95666.59;5114147;28;20471;-58
2023/08/13 03:53:31;;;;;;;0.40;0.30;;;;;;;20.70;80.62;95663.72;5114111;28;20475;-58
2023/08/13 03:56:01;;;;;;;0.60;0.50;;;;;;;20.58;81.22;95653.66;5114272;28;20447;-57
2023/08/13 03:58:31;;;;;;;1.03;0.87;;;;;;;20.34;80.91;95617.66;5114115;27;20443;-58
2023/08/13 04:01:05;;;;;;;0.50;0.37;;;;;;;20.66;79.93;95662.81;5114061;28;20435;-59
2023/08/13 04:03:33;;;;;;;0.50;0.30;;;;;;;20.67;80.95;95667.84;5113955;28;20471;-58
2023/08/13 04:06:02;;;;;;;0.50;0.40;;;;;;;20.69;80.65;95667.56;5114491;28;20483;-58
2023/08/13 04:08:34;;;;;;;0.60;0.40;;;;;;;20.71;80.21;95670.72;5114345;28;20440;-59
2023/08/13 04:11:02;;;;;;;0.80;0.53;;;;;;;20.61;81.09;95665.69;5113844;28;20454;-58
2023/08/13 04:13:32;;;;;;;0.50;0.30;;;;;;;20.50;82.06;95665.25;5114214;28;20946;-58
2023/08/13 04:16:00;;;;;;;1.57;0.60;;;;;;;20.57;81.18;95670.91;5114411;28;20497;-58
2023/08/13 04:18:29;;;;;;;1.57;1.47;;;;;;;20.71;83.57;95673.41;5114362;28;20440;-58
2023/08/13 04:20:57;;;;;;;0.50;0.40;;;;;;;20.70;81.97;95663.72;5106550;28;20488;-58
2023/08/13 04:23:25;;;;;;;0.50;0.40;;;;;;;20.42;79.89;95668.75;5107083;28;20479;-58
2023/08/13 04:25:54;;;;;;;0.90;0.60;;;;;;;20.18;81.69;95674.69;5106905;28;20468;-58
2023/08/13 04:28:22;;;;;;;0.90;0.60;;;;;;;20.25;83.58;95672.31;5105712;28;20447;-58
2023/08/13 04:30:52;;;;;;;0.53;0.50;;;;;;;20.42;82.48;95674.16;5113223;28;20489;-57
2023/08/13 04:33:21;;;;;;;0.60;0.40;;;;;;;20.57;83.73;95672.81;5113535;28;20501;-57
2023/08/13 04:35:53;;;;;;;0.93;0.93;;;;;;;20.43;82.53;95667.66;5113491;28;20511;-57
2023/08/13 04:38:22;;;;;;;0.67;0.67;;;;;;;20.46;82.06;95679.69;5113486;28;20439;-56
2023/08/13 04:40:51;;;;;;;0.60;0.57;;;;;;;20.65;80.38;95677.38;5114083;28;20847;-57
2023/08/13 04:43:19;;;;;;;0.87;0.87;;;;;;;20.88;82.53;95681.38;5113024;28;20440;-56
2023/08/13 04:45:48;;;;;;;0.87;0.70;;;;;;;20.96;81.00;95683.25;5112925;27;20432;-56
2023/08/13 04:48:39;;;;;;;0.40;0.30;;;;;;;21.20;78.17;95680.75;5099526;28;20524;-56
2023/08/13 04:51:07;;;;;;;0.60;0.47;;;;;;;21.29;80.68;95678.81;5113247;28;20440;-57
2023/08/13 04:53:36;;;;;;;0.60;0.40;;;;;;;21.33;77.03;95685.09;5113653;28;20444;-57
2023/08/13 04:56:06;;;;;;;1.30;0.70;;;;;;;21.06;77.86;95677.50;5112922;28;20548;-56
2023/08/13 04:58:35;;;;;;;0.77;0.60;;;;;;;21.19;79.23;95659.50;5113197;28;20439;-56
2023/08/13 05:01:04;;;;;;;0.67;0.40;;;;;;;21.65;76.40;95677.41;5112830;28;20501;-56
2023/08/13 05:03:33;;;;;;;0.50;0.40;;;;;;;21.81;77.21;95678.38;5097811;28;20456;-57
2023/08/13 05:06:02;;;;;;;0.50;0.40;;;;;;;21.80;75.14;95679.50;5112845;28;20447;-58
2023/08/13 05:08:30;;;;;;;0.50;0.30;;;;;;;21.59;75.21;95676.81;5113281;27;20504;-58
2023/08/13 05:10:58;;;;;;;0.50;0.50;;;;;;;21.76;73.11;95676.66;5113163;28;20493;-57
2023/08/13 05:13:27;;;;;;;0.50;0.40;;;;;;;21.59;73.49;95681.41;5113529;28;20427;-58
2023/08/13 05:15:55;;;;;;;2.73;0.40;;;;;;;21.80;75.85;95687.59;5112716;28;20540;-57
2023/08/13 05:18:24;;;;;;;0.67;0.40;;;;;;;21.91;75.23;95684.19;5113369;28;20595;-57
2023/08/13 05:20:53;;;;;;;0.50;0.33;;;;;;;22.05;74.27;95689.31;5112523;28;20969;-56
2023/08/13 05:23:22;;;;;;;0.50;0.40;;;;;;;22.40;74.55;95679.72;5097477;28;20872;-56
2023/08/13 05:25:50;;;;;;;2.60;0.40;;;;;;;22.51;74.50;95678.16;5091922;28;20464;-56
2023/08/13 05:28:19;;;;;;;0.40;0.30;;;;;;;22.71;72.98;95676.53;5110966;28;20497;-56
2023/08/13 05:30:47;;;;;;;0.60;0.50;;;;;;;22.82;71.57;95682.28;5113143;28;20493;-56
2023/08/13 05:33:15;;;;;;;0.40;0.20;;;;;;;22.86;70.37;95672.34;5112261;28;20525;-55
2023/08/13 05:35:44;;;;;;;0.40;0.30;;;;;;;23.00;71.98;95678.19;5112666;28;20559;-56
2023/08/13 05:38:14;;;;;;;0.50;0.50;;;;;;;22.85;72.79;95668.06;5112687;28;20439;-55
2023/08/13 05:40:42;;;;;;;0.70;0.60;;;;;;;22.92;72.73;95676.41;5112046;28;20448;-55
2023/08/13 05:43:10;;;;;;;0.60;0.40;;;;;;;23.12;71.12;95672.78;5112371;28;20428;-55
2023/08/13 05:45:39;;;;;;;0.50;0.40;;;;;;;23.22;70.62;95675.81;5111714;28;20446;-55
2023/08/13 05:48:08;;;;;;;0.50;0.40;;;;;;;23.40;68.58;95668.28;5112103;27;20459;-56
2023/08/13 05:50:36;;;;;;;0.67;0.47;;;;;;;23.61;67.82;95666.16;5111993;28;20443;-56
2023/08/13 05:53:05;;;;;;;0.60;0.60;;;;;;;23.45;65.48;95638.28;5112340;28;20443;-56
2023/08/13 05:55:35;;;;;;;0.70;0.40;;;;;;;24.13;65.08;95657.19;5112443;28;20468;-56
2023/08/13 05:58:05;;;;;;;1.20;1.00;;;;;;;23.92;63.59;95647.34;5111789;28;20500;-56
2023/08/13 06:00:33;;;;;;;0.60;0.40;;;;;;;24.35;62.83;95629.50;5111805;28;20524;-57
2023/08/13 06:03:02;;;;;;;0.53;0.50;;;;;;;24.64;62.32;95653.47;5112504;28;20435;-55
2023/08/13 06:05:30;;;;;;;0.60;0.37;;;;;;;24.67;60.82;95655.47;5112377;28;20510;-55
2023/08/13 06:07:59;;;;;;;0.60;0.40;;;;;;;24.77;59.86;95649.53;5111896;28;20443;-56
2023/08/13 06:10:27;;;;;;;0.60;0.50;;;;;;;24.85;59.17;95645.88;5111780;28;20427;-56
2023/08/13 06:12:57;;;;;;;0.60;0.53;;;;;;;24.90;58.94;95596.78;5096673;28;20447;-56
2023/08/13 06:15:26;;;;;;;0.50;0.40;;;;;;;25.24;57.83;95646.78;5111155;28;20485;-56
2023/08/13 06:17:54;;;;;;;0.60;0.53;;;;;;;25.46;56.90;95635.25;5111582;28;20440;-56
2023/08/13 06:20:22;;;;;;;0.70;0.70;;;;;;;25.82;55.58;95650.34;5111475;28;20467;-56
2023/08/13 06:22:51;;;;;;;0.80;0.43;;;;;;;25.92;54.94;95638.13;5112163;28;20803;-56
2023/08/13 06:25:19;;;;;;;0.40;0.30;;;;;;;25.88;54.00;95640.78;5111905;28;20448;-56
2023/08/13 06:27:47;;;;;;;0.70;0.40;;;;;;;26.03;54.29;95648.06;5112154;28;20825;-58
2023/08/13 06:30:17;;;;;;;0.53;0.40;;;;;;;26.46;53.14;95636.81;5111201;28;20435;-55
2023/08/13 06:32:46;;;;;;;0.40;0.27;;;;;;;26.00;52.24;95591.72;5111071;28;20527;-56
2023/08/13 06:35:15;;;;;;;1.27;0.60;;;;;;;26.57;51.32;95638.91;5111605;28;20479;-57
2023/08/13 06:37:43;;;;;;;0.40;0.30;;;;;;;27.05;51.33;95632.72;5110408;28;20440;-57
2023/08/13 06:40:28;;;;;;;0.67;0.67;;;;;;;27.08;50.31;95623.84;5111330;28;20833;-57
2023/08/13 06:42:57;;;;;;;2.20;1.80;;;;;;;27.38;51.08;95635.53;5109408;28;20508;-57
2023/08/13 06:45:27;;;;;;;0.60;0.53;;;;;;;27.49;49.44;95630.25;5108605;28;20496;-58
2023/08/13 06:47:57;;;;;;;0.50;0.50;;;;;;;27.77;49.95;95627.09;5109171;28;20534;-58
2023/08/13 06:50:25;;;;;;;0.50;0.40;;;;;;;27.70;48.34;95625.84;5109295;28;20446;-57
2023/08/13 06:52:54;;;;;;;0.73;0.73;;;;;;;27.14;47.88;95539.94;5112099;28;20853;-56
2023/08/13 06:55:23;;;;;;;0.67;0.60;;;;;;;27.87;49.10;95618.28;5113742;28;20463;-56
2023/08/13 06:57:51;;;;;;;1.17;0.57;;;;;;;28.18;47.05;95607.72;5096206;28;20457;-57
2023/08/13 07:00:20;;;;;;;0.50;0.40;;;;;;;28.56;47.62;95622.13;5092501;28;20456;-56
2023/08/13 07:03:07;;;;;;;0.90;0.90;;;;;;;28.30;45.16;95612.16;5101271;28;20456;-55
2023/08/13 07:05:36;;;;;;;0.40;0.40;;;;;;;28.37;46.95;95614.94;5108262;28;20918;-56
2023/08/13 07:08:05;;;;;;;0.50;0.40;;;;;;;28.64;46.02;95615.59;5115834;28;20458;-56
2023/08/13 07:10:34;;;;;;;0.50;0.50;;;;;;;28.94;45.17;95608.03;5115519;28;20439;-56
2023/08/13 07:13:02;;;;;;;1.00;0.57;;;;;;;28.54;45.17;95603.38;5115466;28;20474;-55
2023/08/13 07:15:30;;;;;;;0.43;0.43;;;;;;;29.34;44.44;95607.13;5115573;28;20907;-55
2023/08/13 07:17:59;;;;;;;0.50;0.40;;;;;;;29.47;43.55;95613.84;5115378;28;20462;-56
2023/08/13 07:20:29;;;;;;;0.50;0.40;;;;;;;29.02;43.56;95601.44;5115495;28;20439;-56
2023/08/13 07:22:58;;;;;;;0.40;0.40;;;;;;;29.44;44.10;95598.22;5115316;28;20450;-56
2023/08/13 07:25:27;;;;;;;0.47;0.33;;;;;;;29.36;43.68;95600.13;5115364;28;20436;-60
2023/08/13 07:27:55;;;;;;;0.60;0.40;;;;;;;28.95;44.10;95593.22;5115244;28;20976;-60
2023/08/13 07:30:24;;;;;;;0.67;0.67;;;;;;;28.90;42.16;95588.09;5096620;28;20471;-58
2023/08/13 07:32:52;;;;;;;0.40;0.40;;;;;;;28.45;42.66;95553.84;5091067;28;20470;-59
2023/08/13 07:35:20;;;;;;;0.53;0.50;;;;;;;29.26;43.30;95587.19;5113000;28;20439;-59
2023/08/13 07:37:50;;;;;;;0.80;0.60;;;;;;;29.22;42.73;95591.09;5113057;28;21016;-59
2023/08/13 07:40:19;;;;;;;0.40;0.40;;;;;;;29.73;42.72;95586.22;5114196;28;20443;-60
2023/08/13 07:42:47;;;;;;;0.63;0.63;;;;;;;29.63;40.74;95583.44;5087965;28;20436;-59
2023/08/13 07:45:15;;;;;;;0.60;0.60;;;;;;;29.96;40.77;95575.78;5114758;28;20435;-59
2023/08/13 07:47:44;;;;;;;0.60;0.60;;;;;;;29.76;41.05;95571.00;5114784;28;20432;-59
2023/08/13 07:50:13;;;;;;;3.50;1.07;;;;;;;29.68;41.49;95572.19;5112515;27;20451;-59
2023/08/13 07:52:42;;;;;;;0.60;0.60;;;;;;;30.30;41.03;95578.19;5112279;28;20443;-59
2023/08/13 07:55:12;;;;;;;1.00;0.90;;;;;;;30.30;40.50;95570.00;5110911;28;21014;-59
2023/08/13 07:57:40;;;;;;;2.77;0.50;;;;;;;30.48;39.08;95573.56;5111112;28;20497;-59
2023/08/13 08:00:10;;;;;;;1.93;0.60;;;;;;;29.89;40.18;95428.19;5110955;28;20517;-61
2023/08/13 08:02:39;;;;;;;0.53;0.47;;;;;;;30.83;40.53;95562.59;5110949;28;20614;-60
2023/08/13 08:05:08;;;;;;;0.80;0.40;;;;;;;30.94;38.54;95559.88;5111020;28;20496;-59
2023/08/13 08:07:37;;;;;;;0.60;0.60;;;;;;;31.28;40.75;95550.78;5112557;28;20431;-60
2023/08/13 08:10:07;;;;;;;0.53;0.50;;;;;;;31.82;38.42;95546.69;5114366;28;20446;-59
2023/08/13 08:12:37;;;;;;;1.07;0.53;;;;;;;31.40;37.75;95547.59;5114512;28;20446;-60
2023/08/13 08:15:06;;;;;;;0.60;0.40;;;;;;;30.54;38.44;95526.25;5114236;28;20658;-60
2023/08/13 08:17:36;;;;;;;0.60;0.60;;;;;;;30.78;39.40;95536.41;5114152;28;20510;-60
2023/08/13 08:20:07;;;;;;;0.40;0.40;;;;;;;31.26;38.11;95528.50;5114112;28;20439;-60
2023/08/13 08:22:36;;;;;;;0.40;0.40;;;;;;;31.53;37.80;95534.28;5113804;28;20435;-59
2023/08/13 08:25:08;;;;;;;0.50;0.50;;;;;;;32.17;37.89;95529.25;5114232;28;20435;-60
2023/08/13 08:27:38;;;;;;;0.40;0.30;;;;;;;32.67;36.04;95517.88;5113773;28;20485;-59
2023/08/13 08:30:08;;;;;;;0.50;0.50;;;;;;;32.27;36.22;95520.16;5114052;28;20494;-60
2023/08/13 08:32:36;;;;;;;0.83;0.83;;;;;;;32.43;37.09;95509.44;5113457;28;20469;-59
2023/08/13 08:35:06;;;;;;;0.30;0.30;;;;;;;31.87;36.81;95516.09;5101100;28;20462;-59
2023/08/13 08:37:35;;;;;;;0.43;0.43;;;;;;;31.77;36.75;95505.19;5113577;28;20473;-59
2023/08/13 08:40:04;;;;;;;0.50;0.43;;;;;;;31.86;36.47;95513.75;5113788;28;20849;-58
2023/08/13 08:42:33;;;;;;;0.60;0.60;;;;;;;31.60;35.19;95508.81;5113781;28;20996;-60
2023/08/13 08:45:03;;;;;;;0.40;0.40;;;;;;;31.82;37.15;95504.75;5113967;28;20435;-60
2023/08/13 08:47:34;;;;;;;0.60;0.60;;;;;;;32.08;35.69;95506.97;5113912;28;20458;-60
2023/08/13 08:50:04;;;;;;;1.13;1.03;;;;;;;32.03;36.02;95527.38;5113309;28;20550;-60
2023/08/13 08:52:34;;;;;;;0.60;0.47;;;;;;;31.58;34.46;95508.41;5113917;28;20453;-60
2023/08/13 08:55:04;;;;;;;0.50;0.50;;;;;;;31.86;35.32;95505.50;5113200;28;20438;-60
2023/08/13 08:57:32;;;;;;;0.50;0.50;;;;;;;31.94;34.73;95516.03;5113585;28;20478;-59
2023/08/13 09:00:03;;;;;;;0.40;0.37;;;;;;;32.03;35.69;95506.63;5113336;28;20814;-59
2023/08/13 09:02:31;;;;;;;0.60;0.60;;;;;;;32.05;34.35;95510.53;5113320;28;20940;-59
2023/08/13 09:05:00;;;;;;;0.47;0.47;;;;;;;32.32;35.78;95513.44;5103678;28;20920;-60
2023/08/13 09:07:31;;;;;;;0.53;0.47;;;;;;;31.51;35.52;95516.66;5103272;28;20435;-58
2023/08/13 09:10:00;;;;;;;0.70;0.40;;;;;;;31.62;35.26;95523.69;5087255;28;20439;-57
2023/08/13 09:12:37;;;;;;;0.50;0.40;;;;;;;31.23;34.72;95510.09;5087351;28;21052;-58
2023/08/13 09:15:09;;;;;;;0.30;0.20;;;;;;;30.95;33.60;95477.34;5087805;28;20454;-57
2023/08/13 09:17:39;;;;;;;0.50;0.40;;;;;;;30.21;35.14;95501.25;5095892;28;20483;-58
2023/08/13 09:20:17;;;;;;;0.60;0.40;;;;;;;29.34;35.38;95506.88;5113169;28;20478;-58
2023/08/13 09:22:46;;;;;;;0.60;0.60;;;;;;;28.91;36.92;95524.97;5112925;28;20865;-58
2023/08/13 09:25:16;;;;;;;0.40;0.30;;;;;;;28.77;37.44;95453.94;5113342;28;20432;-58
2023/08/13 09:27:45;;;;;;;0.70;0.70;;;;;;;29.13;36.98;95504.03;5106685;28;20464;-57
2023/08/13 09:30:21;;;;;;;5.07;1.17;;;;;;;28.58;37.56;95511.50;5103848;28;20447;-56
2023/08/13 09:32:50;;;;;;;8.10;0.73;;;;;;;28.19;38.53;95491.31;5098700;28;20874;-59
2023/08/13 09:35:19;;;;;;;0.40;0.30;;;;;;;28.25;38.36;95490.59;5091329;28;20992;-56
2023/08/13 09:37:47;;;;;;;0.70;0.70;;;;;;;28.28;38.29;95502.69;5108976;28;20486;-55
2023/08/13 09:40:15;;;;;;;0.40;0.40;;;;;;;28.53;38.90;95487.28;5096742;28;20465;-56
2023/08/13 09:42:44;;;;;;;0.40;0.30;;;;;;;28.70;37.16;95496.78;5112350;28;20436;-55
2023/08/13 09:45:17;;;;;;;1.50;0.43;;;;;;;27.94;41.53;95449.41;5089105;28;20448;-55
2023/08/13 09:47:49;;;;;;;0.50;0.50;;;;;;;27.94;41.70;95490.28;5097360;28;20503;-55
2023/08/13 09:50:18;;;;;;;0.50;0.50;;;;;;;27.89;41.36;95490.63;5106699;28;20440;-54
2023/08/13 09:52:47;;;;;;;0.50;0.40;;;;;;;27.46;42.26;95459.47;5098149;28;20459;-54
2023/08/13 09:55:21;;;;;;;0.50;0.50;;;;;;;27.71;42.34;95491.25;5091993;28;20453;-56
2023/08/13 09:57:52;;;;;;;0.50;0.40;;;;;;;27.68;41.43;95492.00;5088786;28;20475;-56
2023/08/13 10:00:21;;;;;;;0.60;0.50;;;;;;;27.61;40.97;95502.81;5088364;28;21119;-56
2023/08/13 10:02:50;;;;;;;19.17;0.77;;;;;;;27.68;40.90;95515.72;5106004;28;20538;-54
2023/08/13 10:05:19;;;;;;;0.50;0.40;;;;;;;27.97;40.98;95514.84;5097372;28;20897;-55
2023/08/13 10:07:47;;;;;;;0.73;0.73;;;;;;;28.42;41.35;95516.44;5104886;28;20439;-55
2023/08/13 10:10:16;;;;;;;0.93;0.93;;;;;;;29.03;39.11;95507.50;5112249;28;20493;-56
2023/08/13 10:12:45;;;;;;;0.40;0.30;;;;;;;29.33;38.93;95472.53;5111568;28;20921;-56
2023/08/13 10:15:14;;;;;;;0.47;0.30;;;;;;;29.85;36.18;95512.13;5112463;28;20921;-58
2023/08/13 10:17:45;;;;;;;0.87;0.50;;;;;;;29.81;36.50;95508.59;5112190;28;20475;-58
2023/08/13 10:20:14;;;;;;;0.63;0.63;;;;;;;30.06;36.64;95503.16;5110334;28;20957;-58
2023/08/13 10:22:42;;;;;;;0.90;0.60;;;;;;;29.69;35.35;95495.28;5088805;28;20448;-60
2023/08/13 10:25:26;;;;;;;0.40;0.40;;;;;;;30.60;35.83;95488.34;5106198;28;20440;-59
2023/08/13 10:27:55;;;;;;;0.40;0.37;;;;;;;30.88;36.55;95477.34;5111585;28;20575;-58
2023/08/13 10:30:24;;;;;;;0.50;0.40;;;;;;;30.54;34.24;95470.75;5111474;28;20443;-57
2023/08/13 10:32:55;;;;;;;0.40;0.30;;;;;;;30.43;35.50;95476.25;5110668;28;20439;-55
2023/08/13 10:35:31;;;;;;;0.70;0.50;;;;;;;30.22;35.78;95475.44;5111229;28;20442;-55
2023/08/13 10:38:02;;;;;;;0.40;0.40;;;;;;;29.63;36.37;95476.91;5111415;28;21275;-56
2023/08/13 10:40:30;;;;;;;0.57;0.50;;;;;;;30.12;34.85;95474.28;5111467;28;20838;-55
2023/08/13 10:42:59;;;;;;;0.47;0.30;;;;;;;30.80;34.11;95457.41;5111699;28;20578;-55
2023/08/13 10:45:32;;;;;;;0.50;0.43;;;;;;;30.48;35.42;95421.16;5112118;28;20512;-55
2023/08/13 10:48:03;;;;;;;0.40;0.33;;;;;;;31.21;35.83;95449.47;5109376;28;20435;-55
2023/08/13 10:50:34;;;;;;;0.60;0.40;;;;;;;31.83;34.66;95465.19;5108863;28;20439;-55
2023/08/13 10:53:08;;;;;;;0.40;0.40;;;;;;;31.93;33.97;95396.56;5108439;28;20519;-55
2023/08/13 10:55:40;;;;;;;0.40;0.30;;;;;;;32.23;31.54;95448.06;5108574;28;20948;-55
2023/08/13 10:58:09;;;;;;;0.40;0.30;;;;;;;32.32;34.29;95453.09;5108719;28;20845;-55
2023/08/13 11:00:46;;;;;;;0.60;0.53;;;;;;;31.88;33.67;95449.09;5109291;28;20447;-55
2023/08/13 11:03:21;;;;;;;0.50;0.40;;;;;;;32.03;33.16;95435.31;5109562;28;20496;-55
2023/08/13 11:05:50;;;;;;;0.50;0.40;;;;;;;31.69;34.53;95405.00;5109652;28;20445;-54
2023/08/13 11:08:20;;;;;;;0.70;0.40;;;;;;;32.63;32.11;95433.63;5111372;28;20883;-54
2023/08/13 11:11:08;;;;;;;0.40;0.30;;;;;;;33.94;30.67;95431.19;5111507;28;20426;-54
2023/08/13 11:13:37;;;;;;;0.40;0.33;;;;;;;34.36;31.10;95414.78;5111359;28;20435;-54
2023/08/13 11:16:06;;;;;;;1.27;0.40;;;;;;;33.99;30.64;95401.22;5111580;28;20449;-54
2023/08/13 11:18:36;;;;;;;0.90;0.90;;;;;;;32.76;30.09;95419.38;5111277;28;20474;-54
2023/08/13 11:21:06;;;;;;;0.50;0.50;;;;;;;33.69;31.36;95431.56;5111567;28;20885;-54
2023/08/13 11:23:35;;;;;;;0.97;0.70;;;;;;;34.56;28.88;95425.84;5111553;28;20827;-55
2023/08/13 11:26:05;;;;;;;3.57;0.83;;;;;;;35.25;29.25;95424.13;5110836;28;20435;-54
2023/08/13 11:28:35;;;;;;;0.50;0.50;;;;;;;34.71;27.99;95420.88;5111517;28;20846;-55
2023/08/13 11:31:03;;;;;;;1.07;0.40;;;;;;;33.83;28.81;95420.34;5111159;28;20435;-54
2023/08/13 11:33:31;;;;;;;2.77;0.43;;;;;;;32.52;30.17;95412.94;5111321;28;20439;-54
2023/08/13 11:36:01;;;;;;;0.53;0.40;;;;;;;31.92;30.39;95345.69;5111471;28;20821;-55
2023/08/13 11:38:30;;;;;;;1.50;1.40;;;;;;;31.83;30.55;95413.09;5111813;28;20657;-54
2023/08/13 11:40:58;;;;;;;0.47;0.40;;;;;;;32.03;30.67;95394.19;5115302;28;20462;-55
2023/08/13 11:43:29;;;;;;;0.40;0.30;;;;;;;33.05;30.86;95404.91;5115110;28;20920;-54
2023/08/13 11:45:57;;;;;;;0.70;0.60;;;;;;;33.54;30.01;95397.19;5114812;28;20430;-54